createdAt,value
2018-12-21T00:00:32.199Z,101019.96
2018-12-21T00:03:01.089Z,101027.19
2018-12-21T00:05:30.904Z,101022.58
2018-12-21T00:08:00.441Z,101018.86
2018-12-21T00:10:32.386Z,101015.17
2018-12-21T00:13:02.402Z,101013.81
2018-12-21T00:15:33.435Z,101007.83
2018-12-21T00:18:05.251Z,101009.53
2018-12-21T00:20:36.540Z,101015.28
2018-12-21T00:23:05.988Z,101011.84
2018-12-21T00:25:35.288Z,101021.97
2018-12-21T00:28:04.297Z,101012.47
2018-12-21T00:30:34.612Z,101001.00
2018-12-21T00:33:11.861Z,101001.04
2018-12-21T00:35:45.947Z,100989.50
2018-12-21T00:38:21.092Z,100985.19
2018-12-21T00:40:56.176Z,100975.63
2018-12-21T00:43:36.492Z,100967.70
2018-12-21T00:46:10.322Z,100959.60
2018-12-21T00:48:40.792Z,100954.44
2018-12-21T00:51:09.975Z,100952.46
2018-12-21T00:53:40.420Z,100948.81
2018-12-21T00:56:09.956Z,100932.20
2018-12-21T00:58:40.227Z,100930.43
2018-12-21T01:01:10.138Z,100919.34
2018-12-21T01:03:39.358Z,100918.00
2018-12-21T01:06:10.529Z,100913.17
2018-12-21T01:08:39.356Z,100901.10
2018-12-21T01:11:08.448Z,100892.81
2018-12-21T01:13:40.480Z,100900.06
2018-12-21T01:16:09.191Z,100894.59
2018-12-21T01:18:37.962Z,100896.27
2018-12-21T01:21:10.837Z,100886.38
2018-12-21T01:23:48.619Z,100870.73
2018-12-21T01:26:19.320Z,100895.48
2018-12-21T01:28:51.728Z,100891.85
2018-12-21T01:31:22.647Z,100880.36
2018-12-21T01:33:57.850Z,100870.45
2018-12-21T01:36:28.218Z,100876.59
2018-12-21T01:39:00.068Z,100864.02
2018-12-21T01:41:32.061Z,100862.04
2018-12-21T01:44:02.551Z,100858.67
2018-12-21T01:46:37.642Z,100857.75
2018-12-21T01:49:12.627Z,100851.09
2018-12-21T01:51:47.062Z,100847.41
2018-12-21T01:54:16.621Z,100842.73
2018-12-21T01:56:47.013Z,100845.95
2018-12-21T01:59:18.043Z,100832.55
2018-12-21T02:01:49.168Z,100826.48
2018-12-21T02:04:21.898Z,100833.62
2018-12-21T02:06:53.072Z,100829.19
2018-12-21T02:09:26.715Z,100825.84
2018-12-21T02:11:58.771Z,100827.23
2018-12-21T02:14:30.235Z,100827.89
2018-12-21T02:17:03.226Z,100817.15
2018-12-21T02:19:36.642Z,100810.20
2018-12-21T02:22:08.584Z,100812.49
2018-12-21T02:24:41.843Z,100809.79
2018-12-21T02:27:13.010Z,100799.59
2018-12-21T02:29:50.714Z,100792.16
2018-12-21T02:32:24.621Z,100775.91
2018-12-21T02:34:55.523Z,100773.34
2018-12-21T02:37:25.198Z,100765.49
2018-12-21T02:39:56.982Z,100749.74
2018-12-21T02:42:28.095Z,100749.81
2018-12-21T02:45:00.387Z,100613.17
2018-12-21T02:47:33.109Z,100726.87
2018-12-21T02:50:05.859Z,100735.09
2018-12-21T02:52:34.973Z,100735.31
2018-12-21T02:55:05.129Z,100737.63
2018-12-21T02:57:34.807Z,100723.66
2018-12-21T03:00:05.333Z,100728.36
2018-12-21T03:02:34.113Z,100723.48
2018-12-21T03:05:03.688Z,100716.81
2018-12-21T03:07:32.392Z,100706.27
2018-12-21T03:10:02.569Z,100699.66
2018-12-21T03:12:31.827Z,100684.44
2018-12-21T03:15:01.408Z,100683.86
2018-12-21T03:17:31.290Z,100679.23
2018-12-21T03:20:00.266Z,100670.93
2018-12-21T03:22:29.046Z,100656.36
2018-12-21T03:24:57.729Z,100654.59
2018-12-21T03:27:26.736Z,100647.56
2018-12-21T03:29:56.373Z,100645.58
2018-12-21T03:32:25.273Z,100628.92
2018-12-21T03:34:53.957Z,100622.63
2018-12-21T03:37:24.468Z,100609.48
2018-12-21T03:39:54.120Z,100611.72
2018-12-21T03:42:22.733Z,100602.59
2018-12-21T03:44:52.634Z,100591.14
2018-12-21T03:47:21.264Z,100575.81
2018-12-21T03:49:50.456Z,100563.44
2018-12-21T03:52:24.114Z,100536.47
2018-12-21T03:54:55.547Z,100548.31
2018-12-21T03:57:24.153Z,100534.08
2018-12-21T03:59:53.500Z,100531.52
2018-12-21T04:02:22.152Z,100516.77
2018-12-21T04:04:53.295Z,100508.27
2018-12-21T04:07:23.409Z,100494.78
2018-12-21T04:09:54.266Z,100484.64
2018-12-21T04:12:23.832Z,100481.19
2018-12-21T04:14:52.280Z,100475.61
2018-12-21T04:17:21.678Z,100467.31
2018-12-21T04:19:50.930Z,100456.75
2018-12-21T04:22:20.379Z,100443.83
2018-12-21T04:24:52.904Z,100447.59
2018-12-21T04:27:22.196Z,100442.53
2018-12-21T04:29:52.972Z,100439.08
2018-12-21T04:32:22.362Z,100436.95
2018-12-21T04:34:50.797Z,100431.65
2018-12-21T04:37:21.353Z,100420.98
2018-12-21T04:39:50.085Z,100416.55
2018-12-21T04:42:18.570Z,100412.77
2018-12-21T04:44:48.260Z,100402.63
2018-12-21T04:47:17.801Z,100395.60
2018-12-21T04:49:47.162Z,100382.50
2018-12-21T04:52:15.724Z,100376.11
2018-12-21T04:54:44.272Z,100372.98
2018-12-21T04:57:12.890Z,100376.23
2018-12-21T04:59:42.096Z,100377.07
2018-12-21T05:02:12.621Z,100374.02
2018-12-21T05:04:41.497Z,100356.45
2018-12-21T05:07:12.666Z,100346.61
2018-12-21T05:09:40.388Z,100334.12
2018-12-21T05:12:09.905Z,100330.42
2018-12-21T05:14:38.630Z,100322.28
2018-12-21T05:17:07.149Z,100316.17
2018-12-21T05:19:37.758Z,100308.50
2018-12-21T05:22:06.174Z,100301.40
2018-12-21T05:24:36.803Z,100287.18
2018-12-21T05:27:06.810Z,100280.41
2018-12-21T05:29:35.981Z,100272.59
2018-12-21T05:32:04.900Z,100264.86
2018-12-21T05:34:34.537Z,100278.41
2018-12-21T05:37:03.827Z,100269.23
2018-12-21T05:39:36.430Z,100252.80
2018-12-21T05:42:07.909Z,100244.22
2018-12-21T05:44:36.310Z,100235.32
2018-12-21T05:47:04.689Z,100223.48
2018-12-21T05:49:35.254Z,100227.78
2018-12-21T05:52:06.117Z,100217.92
2018-12-21T05:54:35.680Z,100218.46
2018-12-21T05:57:08.168Z,100213.73
2018-12-21T05:59:37.780Z,100207.08
2018-12-21T06:02:06.249Z,100208.68
2018-12-21T06:04:36.236Z,100192.33
2018-12-21T06:07:05.909Z,100191.50
2018-12-21T06:09:36.364Z,100179.98
2018-12-21T06:12:05.618Z,100174.25
2018-12-21T06:14:35.920Z,100163.77
2018-12-21T06:17:05.350Z,100157.45
2018-12-21T06:19:36.868Z,100146.18
2018-12-21T06:22:05.922Z,100141.27
2018-12-21T06:24:34.439Z,100136.87
2018-12-21T06:27:03.035Z,100135.09
2018-12-21T06:29:33.055Z,100136.05
2018-12-21T06:32:02.156Z,100128.66
2018-12-21T06:34:32.105Z,100128.11
2018-12-21T06:37:01.155Z,100115.97
2018-12-21T06:39:30.199Z,100105.39
2018-12-21T06:41:59.323Z,100098.96
2018-12-21T06:44:29.027Z,100084.87
2018-12-21T06:46:59.295Z,100091.60
2018-12-21T06:49:29.007Z,100080.22
2018-12-21T06:54:38.351Z,100055.58
2018-12-21T06:57:08.336Z,100052.02
2018-12-21T06:59:36.529Z,100040.17
2018-12-21T07:02:05.085Z,100045.65
2018-12-21T07:04:33.285Z,100042.19
2018-12-21T07:07:01.464Z,100037.52
2018-12-21T07:09:29.782Z,100029.11
2018-12-21T07:11:58.002Z,100021.38
2018-12-21T07:14:26.311Z,100019.29
2018-12-21T07:16:54.669Z,100012.20
2018-12-21T07:19:22.973Z,100010.16
2018-12-21T07:21:51.197Z,99994.93
2018-12-21T07:26:58.485Z,99987.98
2018-12-21T07:29:26.756Z,99980.75
2018-12-21T07:31:56.028Z,99977.87
2018-12-21T07:34:25.984Z,99973.30
2018-12-21T07:36:54.537Z,99969.81
2018-12-21T07:39:23.040Z,99940.04
2018-12-21T07:41:51.250Z,99941.40
2018-12-21T07:44:19.427Z,99924.64
2018-12-21T07:46:47.772Z,99921.20
2018-12-21T07:49:16.020Z,99910.56
2018-12-21T07:51:44.323Z,99898.52
2018-12-21T07:54:12.705Z,99899.35
2018-12-21T07:56:40.940Z,99890.31
2018-12-21T07:59:09.196Z,99887.00
2018-12-21T08:01:37.578Z,99878.73
2018-12-21T08:04:05.843Z,99870.54
2018-12-21T08:06:34.081Z,99864.48
2018-12-21T08:09:03.341Z,99858.83
2018-12-21T08:11:31.587Z,99856.58
2018-12-21T08:13:59.850Z,99857.88
2018-12-21T08:16:28.275Z,99853.63
2018-12-21T08:18:56.483Z,99841.83
2018-12-21T08:21:24.801Z,99843.02
2018-12-21T08:23:53.112Z,99841.60
2018-12-21T08:26:21.281Z,99842.09
2018-12-21T08:28:49.525Z,99842.77
2018-12-21T08:31:17.901Z,99836.95
2018-12-21T08:33:47.049Z,99840.63
2018-12-21T08:36:15.802Z,99824.34
2018-12-21T08:38:44.149Z,99826.48
2018-12-21T08:41:12.363Z,99826.63
2018-12-21T08:43:40.592Z,99829.59
2018-12-21T08:46:08.883Z,99824.78
2018-12-21T08:48:37.095Z,99826.30
2018-12-21T08:51:05.906Z,99819.05
2018-12-21T08:53:34.177Z,99826.98
2018-12-21T08:56:02.412Z,99830.39
2018-12-21T08:58:30.712Z,99825.30
2018-12-21T09:00:59.048Z,99822.34
2018-12-21T09:03:27.401Z,99827.44
2018-12-21T09:05:55.710Z,99833.20
2018-12-21T09:08:24.044Z,99828.63
2018-12-21T09:10:52.286Z,99821.45
2018-12-21T09:13:20.663Z,99825.80
2018-12-21T09:15:49.125Z,99832.60
2018-12-21T09:18:17.321Z,99835.50
2018-12-21T09:20:45.497Z,99852.05
2018-12-21T09:23:13.848Z,99846.52
2018-12-21T09:25:42.180Z,99859.48
2018-12-21T09:28:10.396Z,99848.66
2018-12-21T09:30:38.633Z,99849.60
2018-12-21T09:33:06.946Z,99855.36
2018-12-21T09:35:36.005Z,99864.70
2018-12-21T09:38:04.373Z,99852.62
2018-12-21T09:40:32.732Z,99859.22
2018-12-21T09:43:00.920Z,99870.45
2018-12-21T09:45:29.318Z,99870.14
2018-12-21T09:47:57.527Z,99879.84
2018-12-21T09:50:26.008Z,99876.17
2018-12-21T09:52:54.227Z,99866.28
2018-12-21T09:55:22.405Z,99868.73
2018-12-21T09:57:50.825Z,99872.65
2018-12-21T10:00:19.044Z,99872.86
2018-12-21T10:02:47.653Z,99868.73
2018-12-21T10:05:16.962Z,99866.50
2018-12-21T10:07:45.159Z,99873.91
2018-12-21T10:10:13.527Z,99860.48
2018-12-21T10:12:41.901Z,99870.28
2018-12-21T10:15:10.505Z,99873.08
2018-12-21T10:17:38.785Z,99866.47
2018-12-21T10:20:08.830Z,99879.33
2018-12-21T10:22:37.134Z,99888.04
2018-12-21T10:25:06.288Z,99874.13
2018-12-21T10:27:35.309Z,99879.37
2018-12-21T10:30:04.597Z,99873.05
2018-12-21T10:32:33.051Z,99873.27
2018-12-21T10:35:01.284Z,99881.28
2018-12-21T10:37:32.055Z,99882.62
2018-12-21T10:40:00.622Z,99885.10
2018-12-21T10:42:29.152Z,99884.45
2018-12-21T10:44:57.363Z,99874.49
2018-12-21T10:47:25.817Z,99879.86
2018-12-21T10:49:54.144Z,99899.52
2018-12-21T10:52:22.472Z,99895.87
2018-12-21T10:54:50.786Z,99891.31
2018-12-21T10:57:19.046Z,99893.38
2018-12-21T10:59:47.262Z,99901.69
2018-12-21T11:02:15.650Z,99897.41
2018-12-21T11:04:43.981Z,99897.96
2018-12-21T11:07:12.584Z,99909.81
2018-12-21T11:09:41.213Z,99898.86
2018-12-21T11:12:09.636Z,99892.33
2018-12-21T11:14:38.127Z,99892.78
2018-12-21T11:17:06.334Z,99903.88
2018-12-21T11:19:34.857Z,99906.36
2018-12-21T11:22:03.198Z,99893.48
2018-12-21T11:24:35.376Z,99909.85
2018-12-21T11:27:01.761Z,99921.12
2018-12-21T11:29:30.135Z,99914.58
2018-12-21T11:31:58.392Z,99907.70
2018-12-21T11:34:26.719Z,99906.93
2018-12-21T11:36:55.238Z,99907.77
2018-12-21T11:39:24.130Z,99908.04
2018-12-21T11:41:52.525Z,99923.91
2018-12-21T11:44:20.970Z,99921.78
2018-12-21T11:46:49.338Z,99917.71
2018-12-21T11:49:17.661Z,99926.34
2018-12-21T11:51:46.213Z,99926.09
2018-12-21T11:54:14.545Z,99926.33
2018-12-21T11:56:43.135Z,99911.16
2018-12-21T11:59:11.808Z,99930.73
2018-12-21T12:01:40.148Z,99931.64
2018-12-21T12:04:08.434Z,99922.59
2018-12-21T12:06:36.926Z,99933.69
2018-12-21T12:09:07.453Z,99930.83
2018-12-21T12:11:35.853Z,99940.64
2018-12-21T12:14:04.293Z,99940.71
2018-12-21T12:16:32.518Z,99929.76
2018-12-21T12:19:00.809Z,99938.09
2018-12-21T12:21:29.187Z,99943.57
2018-12-21T12:23:57.489Z,99938.19
2018-12-21T12:26:25.714Z,99944.35
2018-12-21T12:28:54.123Z,99943.05
2018-12-21T12:31:22.421Z,99944.38
2018-12-21T12:33:51.120Z,99954.57
2018-12-21T12:36:19.988Z,99940.25
2018-12-21T12:38:48.449Z,99959.94
2018-12-21T12:41:19.396Z,99962.29
2018-12-21T12:43:47.745Z,99964.38
2018-12-21T12:46:16.067Z,99942.99
2018-12-21T12:48:44.526Z,99964.81
2018-12-21T12:51:13.222Z,99965.18
2018-12-21T12:53:41.840Z,99979.49
2018-12-21T12:56:10.823Z,99983.55
2018-12-21T12:58:39.241Z,99967.20
2018-12-21T13:01:08.162Z,99983.00
2018-12-21T13:03:36.893Z,99941.53
2018-12-21T13:06:05.260Z,99975.47
2018-12-21T13:08:33.753Z,99994.37
2018-12-21T13:11:02.224Z,99995.92
2018-12-21T13:13:30.800Z,100002.25
2018-12-21T13:15:59.554Z,99993.77
2018-12-21T13:18:28.144Z,100011.52
2018-12-21T13:20:56.943Z,100022.77
2018-12-21T13:23:25.748Z,100001.04
2018-12-21T13:25:54.635Z,100021.72
2018-12-21T13:28:23.107Z,100011.27
2018-12-21T13:30:51.592Z,100005.95
2018-12-21T13:33:20.029Z,100008.64
2018-12-21T13:35:48.506Z,100012.77
2018-12-21T13:38:17.132Z,100013.55
2018-12-21T13:40:45.645Z,100017.48
2018-12-21T13:43:14.750Z,100033.70
2018-12-21T13:45:43.275Z,100038.04
2018-12-21T13:48:11.719Z,100034.27
2018-12-21T13:50:40.343Z,100051.90
2018-12-21T13:53:08.902Z,100043.02
2018-12-21T13:55:38.099Z,100060.23
2018-12-21T13:58:06.597Z,100064.75
2018-12-21T14:00:35.011Z,99969.96
2018-12-21T14:03:03.393Z,100084.38
2018-12-21T14:05:31.764Z,100090.85
2018-12-21T14:08:00.288Z,100097.30
2018-12-21T14:10:28.989Z,100098.88
2018-12-21T14:12:57.471Z,100096.27
2018-12-21T14:15:26.036Z,100088.71
2018-12-21T14:17:54.460Z,100109.37
2018-12-21T14:20:22.931Z,100122.87
2018-12-21T14:22:51.287Z,100130.81
2018-12-21T14:25:19.526Z,100141.29
2018-12-21T14:27:48.230Z,100138.58
2018-12-21T14:30:16.692Z,100143.30
2018-12-21T14:32:44.954Z,100147.54
2018-12-21T14:35:13.436Z,100171.97
2018-12-21T14:37:41.793Z,100159.32
2018-12-21T14:40:10.060Z,100154.88
2018-12-21T14:42:38.579Z,100164.39
2018-12-21T14:45:07.445Z,100177.21
2018-12-21T14:47:35.718Z,100164.70
2018-12-21T14:50:06.782Z,100183.53
2018-12-21T14:52:35.153Z,100201.93
2018-12-21T14:55:04.451Z,100193.43
2018-12-21T14:57:32.780Z,100203.82
2018-12-21T15:00:01.137Z,100224.59
2018-12-21T15:02:29.533Z,100205.88
2018-12-21T15:04:57.901Z,100200.91
2018-12-21T15:07:26.443Z,100214.11
2018-12-21T15:09:54.743Z,100201.55
2018-12-21T15:12:22.956Z,100199.62
2018-12-21T15:14:51.322Z,100219.63
2018-12-21T15:17:19.556Z,100240.84
2018-12-21T15:19:47.858Z,100239.71
2018-12-21T15:22:16.253Z,100227.48
2018-12-21T15:24:44.530Z,100234.91
2018-12-21T15:27:12.840Z,100221.64
2018-12-21T15:29:41.417Z,100230.44
2018-12-21T15:32:09.947Z,100260.64
2018-12-21T15:34:38.298Z,100245.51
2018-12-21T15:37:06.778Z,100237.81
2018-12-21T15:39:35.369Z,100242.84
2018-12-21T15:42:03.858Z,100257.85
2018-12-21T15:44:32.331Z,100269.98
2018-12-21T15:47:08.796Z,100277.57
2018-12-21T15:49:31.145Z,100286.45
2018-12-21T15:51:59.633Z,100287.40
2018-12-21T15:54:28.101Z,100299.25
2018-12-21T15:56:56.771Z,100299.27
2018-12-21T15:59:25.183Z,100304.12
2018-12-21T16:01:53.895Z,100302.08
2018-12-21T16:04:22.426Z,100318.63
2018-12-21T16:06:50.835Z,100310.84
2018-12-21T16:09:19.169Z,100308.44
2018-12-21T16:11:47.493Z,100313.57
2018-12-21T16:14:15.974Z,100319.84
2018-12-21T16:16:44.400Z,100306.45
2018-12-21T16:19:12.852Z,100332.36
2018-12-21T16:21:41.218Z,100319.92
2018-12-21T16:24:09.592Z,100335.16
2018-12-21T16:26:37.983Z,100332.20
2018-12-21T16:29:06.365Z,100351.61
2018-12-21T16:31:35.167Z,100344.91
2018-12-21T16:34:04.171Z,100353.52
2018-12-21T16:36:32.743Z,100370.25
2018-12-21T16:41:39.858Z,100366.23
2018-12-21T16:44:08.361Z,100368.38
2018-12-21T16:46:36.726Z,100367.61
2018-12-21T16:51:50.394Z,100378.75
2018-12-21T16:54:18.991Z,100391.83
2018-12-21T16:56:47.309Z,100389.21
2018-12-21T16:59:15.641Z,100395.77
2018-12-21T17:01:44.118Z,100412.11
2018-12-21T17:04:12.470Z,100401.64
2018-12-21T17:06:40.974Z,100409.30
2018-12-21T17:09:09.583Z,100406.77
2018-12-21T17:11:38.141Z,100424.02
2018-12-21T17:14:06.926Z,100421.37
2018-12-21T17:16:35.182Z,100430.28
2018-12-21T17:19:13.608Z,100414.15
2018-12-21T17:21:41.913Z,100426.41
2018-12-21T17:24:10.342Z,100427.13
2018-12-21T17:26:38.854Z,100434.74
2018-12-21T17:29:07.250Z,100441.73
2018-12-21T17:31:35.601Z,100447.16
2018-12-21T17:34:04.054Z,100461.59
2018-12-21T17:36:32.582Z,100466.55
2018-12-21T17:39:01.046Z,100459.86
2018-12-21T17:41:29.430Z,100467.66
2018-12-21T17:43:57.849Z,100473.19
2018-12-21T17:46:26.199Z,100485.59
2018-12-21T17:48:54.574Z,100492.97
2018-12-21T17:51:23.586Z,100499.09
2018-12-21T17:53:52.079Z,100503.30
2018-12-21T17:56:20.425Z,100517.84
2018-12-21T17:58:48.916Z,100514.97
2018-12-21T18:01:18.138Z,100517.84
2018-12-21T18:04:21.202Z,100521.56
2018-12-21T18:06:49.484Z,100524.63
2018-12-21T18:09:17.938Z,100538.52
2018-12-21T18:11:46.321Z,100552.83
2018-12-21T18:14:14.768Z,100556.19
2018-12-21T18:16:43.146Z,100555.28
2018-12-21T18:19:11.526Z,100554.84
2018-12-21T18:21:49.358Z,100571.77
2018-12-21T18:24:17.820Z,100577.91
2018-12-21T18:26:46.115Z,100583.77
2018-12-21T18:29:14.721Z,100590.20
2018-12-21T18:32:52.634Z,100594.15
2018-12-21T18:35:21.448Z,100605.34
2018-12-21T18:38:01.018Z,100594.55
2018-12-21T18:40:30.702Z,100592.69
2018-12-21T18:43:00.656Z,100597.56
2018-12-21T18:45:30.628Z,100603.00
2018-12-21T18:47:59.102Z,100606.25
2018-12-21T18:50:29.437Z,100601.48
2018-12-21T18:52:57.988Z,100606.02
2018-12-21T18:55:27.175Z,100612.59
2018-12-21T18:57:55.769Z,100624.72
2018-12-21T19:00:25.203Z,100628.70
2018-12-21T19:02:54.092Z,100618.41
2018-12-21T19:05:23.123Z,100630.56
2018-12-21T19:07:54.027Z,100655.16
2018-12-21T19:10:23.347Z,100659.30
2018-12-21T19:12:51.761Z,100658.58
2018-12-21T19:15:22.571Z,100656.91
2018-12-21T19:17:51.303Z,100662.54
2018-12-21T19:20:19.983Z,100669.80
2018-12-21T19:22:49.090Z,100662.62
2018-12-21T19:25:19.335Z,100672.41
2018-12-21T19:27:48.599Z,100682.35
2018-12-21T19:30:17.015Z,100685.63
2018-12-21T19:32:46.566Z,100687.47
2018-12-21T19:35:15.636Z,100695.66
2018-12-21T19:37:44.053Z,100699.33
2018-12-21T19:40:13.850Z,100689.03
2018-12-21T19:42:44.955Z,100700.23
2018-12-21T19:45:14.525Z,100694.75
2018-12-21T19:47:43.011Z,100697.55
2018-12-21T19:50:13.702Z,100706.59
2018-12-21T19:52:42.301Z,100702.78
2018-12-21T19:57:22.972Z,100676.93
2018-12-21T19:59:51.669Z,100706.70
2018-12-21T20:02:20.915Z,100711.55
2018-12-21T20:04:49.714Z,100717.92
2018-12-21T20:07:18.863Z,100717.00
2018-12-21T20:09:48.214Z,100723.31
2018-12-21T20:12:16.662Z,100728.55
2018-12-21T20:14:45.223Z,100720.47
2018-12-21T20:17:13.774Z,100722.99
2018-12-21T20:19:42.327Z,100725.72
2018-12-21T20:22:10.851Z,100738.31
2018-12-21T20:24:40.731Z,100734.21
2018-12-21T20:27:14.380Z,100735.00
2018-12-21T20:30:02.457Z,100744.55
2018-12-21T20:32:30.966Z,100748.56
2018-12-21T20:34:59.510Z,100747.88
2018-12-21T20:37:28.161Z,100742.47
2018-12-21T20:39:56.762Z,100743.95
2018-12-21T20:42:25.223Z,100751.87
2018-12-21T20:44:54.109Z,100749.84
2018-12-21T20:47:22.722Z,100749.66
2018-12-21T20:49:51.150Z,100745.84
2018-12-21T20:52:19.735Z,100765.89
2018-12-21T20:54:48.739Z,100766.94
2018-12-21T20:57:22.052Z,100759.06
2018-12-21T20:59:49.839Z,100765.38
2018-12-21T21:02:18.343Z,100769.45
2018-12-21T21:04:48.333Z,100762.62
2018-12-21T21:07:16.984Z,100765.89
2018-12-21T21:09:45.387Z,100759.09
2018-12-21T21:12:13.787Z,100770.03
2018-12-21T21:14:42.399Z,100773.27
2018-12-21T21:17:10.731Z,100773.34
2018-12-21T21:19:39.766Z,100781.59
2018-12-21T21:22:08.441Z,100773.79
2018-12-21T21:24:37.306Z,100781.95
2018-12-21T21:27:06.478Z,100779.59
2018-12-21T21:29:36.174Z,100783.30
2018-12-21T21:32:04.588Z,100783.86
2018-12-21T21:34:47.592Z,100784.91
2018-12-21T21:37:16.054Z,100786.09
2018-12-21T21:39:44.431Z,100780.94
2018-12-21T21:42:13.010Z,100794.64
2018-12-21T21:44:41.523Z,100792.28
2018-12-21T21:47:10.052Z,100801.27
2018-12-21T21:49:38.502Z,100799.60
2018-12-21T21:52:07.579Z,100811.38
2018-12-21T21:54:36.364Z,100806.20
2018-12-21T21:57:04.859Z,100811.05
2018-12-21T21:59:33.270Z,100812.96
2018-12-21T22:02:01.683Z,100815.58
2018-12-21T22:04:30.102Z,100816.41
2018-12-21T22:07:02.769Z,100824.23
2018-12-21T22:09:32.332Z,100813.31
2018-12-21T22:12:00.947Z,100818.11
2018-12-21T22:14:29.572Z,100825.21
2018-12-21T22:16:58.682Z,100827.83
2018-12-21T22:19:27.102Z,100826.30
2018-12-21T22:21:55.802Z,100841.41
2018-12-21T22:24:24.428Z,100836.63
2018-12-21T22:26:52.957Z,100839.85
2018-12-21T22:29:21.521Z,100835.77
2018-12-21T22:31:57.487Z,100824.34
2018-12-21T22:34:26.510Z,100825.66
2018-12-21T22:36:58.188Z,100833.06
2018-12-21T22:39:26.890Z,100834.67
2018-12-21T22:41:55.358Z,100839.85
2018-12-21T22:44:23.958Z,100835.45
2018-12-21T22:46:52.498Z,100839.86
2018-12-21T22:49:21.018Z,100837.84
2018-12-21T22:51:49.604Z,100830.45
2018-12-21T22:54:18.167Z,100837.30
2018-12-21T22:56:46.594Z,100836.99
2018-12-21T22:59:15.101Z,100835.72
2018-12-21T23:01:43.741Z,100835.55
2018-12-21T23:04:12.144Z,100834.16
2018-12-21T23:06:40.633Z,100837.66
2018-12-21T23:09:09.259Z,100831.11
2018-12-21T23:11:37.583Z,100833.30
2018-12-21T23:14:06.094Z,100824.14
2018-12-21T23:16:34.999Z,100818.38
2018-12-21T23:19:03.381Z,100824.84
2018-12-21T23:21:31.868Z,100828.25
2018-12-21T23:24:00.374Z,100827.16
2018-12-21T23:26:28.788Z,100832.85
2018-12-21T23:28:57.128Z,100828.16
2018-12-21T23:31:25.646Z,100826.87
2018-12-21T23:33:57.571Z,100831.93
2018-12-21T23:36:30.855Z,100827.11
2018-12-21T23:38:59.280Z,100817.91
2018-12-21T23:41:28.610Z,100823.31
2018-12-21T23:43:57.299Z,100827.78
2018-12-21T23:46:26.458Z,100828.84
2018-12-21T23:48:54.922Z,100817.16
2018-12-21T23:51:23.725Z,100825.33
2018-12-21T23:53:52.079Z,100823.92
2018-12-21T23:56:20.560Z,100821.47
2018-12-21T23:58:49.068Z,100826.03
